sensor_id;sensor_type;location;lat;lon;timestamp;P1;durP1;ratioP1;P2;durP2;ratioP2
50968;SDS011;36982;51.474;7.228;2023-05-10T00:01:40;5.60;;;4.47;;
50968;SDS011;36982;51.474;7.228;2023-05-10T00:04:06;7.60;;;4.30;;
50968;SDS011;36982;51.474;7.228;2023-05-10T00:06:31;5.73;;;4.70;;
50968;SDS011;36982;51.474;7.228;2023-05-10T00:08:57;6.33;;;4.37;;
50968;SDS011;36982;51.474;7.228;2023-05-10T00:11:23;6.13;;;4.60;;
50968;SDS011;36982;51.474;7.228;2023-05-10T00:13:49;6.80;;;5.00;;
50968;SDS011;36982;51.474;7.228;2023-05-10T00:16:14;7.10;;;4.90;;
50968;SDS011;36982;51.474;7.228;2023-05-10T00:18:40;6.37;;;4.53;;
50968;SDS011;36982;51.474;7.228;2023-05-10T00:21:06;5.80;;;4.70;;
50968;SDS011;36982;51.474;7.228;2023-05-10T00:23:31;7.30;;;4.60;;
50968;SDS011;36982;51.474;7.228;2023-05-10T00:25:57;7.37;;;5.10;;
50968;SDS011;36982;51.474;7.228;2023-05-10T00:28:23;6.30;;;4.80;;
50968;SDS011;36982;51.474;7.228;2023-05-10T00:30:49;6.77;;;4.93;;
50968;SDS011;36982;51.474;7.228;2023-05-10T00:33:14;7.13;;;5.00;;
50968;SDS011;36982;51.474;7.228;2023-05-10T00:35:40;7.30;;;5.23;;
50968;SDS011;36982;51.474;7.228;2023-05-10T00:38:06;6.33;;;4.77;;
50968;SDS011;36982;51.474;7.228;2023-05-10T00:40:31;8.27;;;5.53;;
50968;SDS011;36982;51.474;7.228;2023-05-10T00:42:57;7.73;;;5.93;;
50968;SDS011;36982;51.474;7.228;2023-05-10T00:45:25;7.87;;;5.60;;
50968;SDS011;36982;51.474;7.228;2023-05-10T00:47:52;8.13;;;5.97;;
50968;SDS011;36982;51.474;7.228;2023-05-10T00:50:20;7.97;;;6.17;;
50968;SDS011;36982;51.474;7.228;2023-05-10T00:52:47;9.03;;;6.60;;
50968;SDS011;36982;51.474;7.228;2023-05-10T00:55:13;10.03;;;7.00;;
50968;SDS011;36982;51.474;7.228;2023-05-10T00:57:38;9.63;;;7.00;;
50968;SDS011;36982;51.474;7.228;2023-05-10T01:00:05;10.93;;;7.10;;
50968;SDS011;36982;51.474;7.228;2023-05-10T01:02:31;9.20;;;6.47;;
50968;SDS011;36982;51.474;7.228;2023-05-10T01:04:59;11.13;;;7.03;;
50968;SDS011;36982;51.474;7.228;2023-05-10T01:07:26;9.80;;;7.17;;
50968;SDS011;36982;51.474;7.228;2023-05-10T01:09:52;9.37;;;7.00;;
50968;SDS011;36982;51.474;7.228;2023-05-10T01:12:18;9.87;;;6.83;;
50968;SDS011;36982;51.474;7.228;2023-05-10T01:14:43;10.17;;;7.10;;
50968;SDS011;36982;51.474;7.228;2023-05-10T01:17:09;11.67;;;7.27;;
50968;SDS011;36982;51.474;7.228;2023-05-10T01:19:37;10.00;;;6.87;;
50968;SDS011;36982;51.474;7.228;2023-05-10T01:27:29;12.50;;;7.93;;
50968;SDS011;36982;51.474;7.228;2023-05-10T01:33:18;9.40;;;7.17;;
50968;SDS011;36982;51.474;7.228;2023-05-10T01:35:57;9.60;;;7.10;;
50968;SDS011;36982;51.474;7.228;2023-05-10T01:42:02;8.53;;;6.70;;
50968;SDS011;36982;51.474;7.228;2023-05-10T01:44:34;9.77;;;7.30;;
50968;SDS011;36982;51.474;7.228;2023-05-10T01:47:06;12.47;;;7.10;;
50968;SDS011;36982;51.474;7.228;2023-05-10T01:49:37;8.83;;;6.90;;
50968;SDS011;36982;51.474;7.228;2023-05-10T01:52:09;9.00;;;6.87;;
50968;SDS011;36982;51.474;7.228;2023-05-10T01:54:47;8.77;;;6.50;;
50968;SDS011;36982;51.474;7.228;2023-05-10T01:57:19;9.07;;;7.30;;
50968;SDS011;36982;51.474;7.228;2023-05-10T01:59:46;11.50;;;7.70;;
50968;SDS011;36982;51.474;7.228;2023-05-10T02:02:15;10.60;;;7.47;;
50968;SDS011;36982;51.474;7.228;2023-05-10T02:04:45;10.87;;;7.97;;
50968;SDS011;36982;51.474;7.228;2023-05-10T02:07:12;10.83;;;7.47;;
50968;SDS011;36982;51.474;7.228;2023-05-10T02:09:39;8.97;;;7.50;;
50968;SDS011;36982;51.474;7.228;2023-05-10T02:12:09;9.83;;;7.70;;
50968;SDS011;36982;51.474;7.228;2023-05-10T02:14:36;11.13;;;7.50;;
50968;SDS011;36982;51.474;7.228;2023-05-10T02:17:04;11.97;;;7.77;;
50968;SDS011;36982;51.474;7.228;2023-05-10T02:19:31;12.10;;;8.20;;
50968;SDS011;36982;51.474;7.228;2023-05-10T02:21:58;10.10;;;7.70;;
50968;SDS011;36982;51.474;7.228;2023-05-10T02:24:25;9.67;;;7.60;;
50968;SDS011;36982;51.474;7.228;2023-05-10T02:26:53;14.07;;;7.90;;
50968;SDS011;36982;51.474;7.228;2023-05-10T02:29:23;12.67;;;8.13;;
50968;SDS011;36982;51.474;7.228;2023-05-10T02:31:54;12.00;;;8.03;;
50968;SDS011;36982;51.474;7.228;2023-05-10T02:34:24;12.63;;;8.33;;
50968;SDS011;36982;51.474;7.228;2023-05-10T02:36:52;12.83;;;8.80;;
50968;SDS011;36982;51.474;7.228;2023-05-10T02:39:19;13.10;;;8.73;;
50968;SDS011;36982;51.474;7.228;2023-05-10T02:41:46;14.07;;;9.13;;
50968;SDS011;36982;51.474;7.228;2023-05-10T02:44:14;14.03;;;8.97;;
50968;SDS011;36982;51.474;7.228;2023-05-10T02:46:42;11.93;;;8.63;;
50968;SDS011;36982;51.474;7.228;2023-05-10T02:49:08;11.63;;;7.80;;
50968;SDS011;36982;51.474;7.228;2023-05-10T02:51:35;12.23;;;7.83;;
50968;SDS011;36982;51.474;7.228;2023-05-10T02:54:18;11.77;;;8.20;;
50968;SDS011;36982;51.474;7.228;2023-05-10T02:56:53;12.33;;;8.70;;
50968;SDS011;36982;51.474;7.228;2023-05-10T02:59:24;12.67;;;8.50;;
50968;SDS011;36982;51.474;7.228;2023-05-10T03:01:50;14.53;;;9.30;;
50968;SDS011;36982;51.474;7.228;2023-05-10T03:04:15;12.30;;;8.40;;
50968;SDS011;36982;51.474;7.228;2023-05-10T03:06:41;12.20;;;8.13;;
50968;SDS011;36982;51.474;7.228;2023-05-10T03:09:07;13.27;;;9.27;;
50968;SDS011;36982;51.474;7.228;2023-05-10T03:17:03;15.00;;;9.70;;
50968;SDS011;36982;51.474;7.228;2023-05-10T03:19:51;12.63;;;8.77;;
50968;SDS011;36982;51.474;7.228;2023-05-10T03:22:26;14.30;;;9.50;;
50968;SDS011;36982;51.474;7.228;2023-05-10T03:25:12;11.73;;;7.97;;
50968;SDS011;36982;51.474;7.228;2023-05-10T03:27:41;14.50;;;8.87;;
50968;SDS011;36982;51.474;7.228;2023-05-10T03:30:10;12.50;;;8.27;;
50968;SDS011;36982;51.474;7.228;2023-05-10T03:32:37;15.33;;;9.43;;
50968;SDS011;36982;51.474;7.228;2023-05-10T03:35:09;15.13;;;8.67;;
50968;SDS011;36982;51.474;7.228;2023-05-10T03:37:36;11.70;;;7.57;;
50968;SDS011;36982;51.474;7.228;2023-05-10T03:40:02;13.33;;;8.23;;
50968;SDS011;36982;51.474;7.228;2023-05-10T03:42:28;16.87;;;9.43;;
50968;SDS011;36982;51.474;7.228;2023-05-10T03:44:54;14.23;;;8.73;;
50968;SDS011;36982;51.474;7.228;2023-05-10T03:47:20;13.80;;;8.07;;
50968;SDS011;36982;51.474;7.228;2023-05-10T03:49:46;13.40;;;7.77;;
50968;SDS011;36982;51.474;7.228;2023-05-10T03:52:11;10.77;;;7.37;;
50968;SDS011;36982;51.474;7.228;2023-05-10T03:54:37;13.17;;;8.00;;
50968;SDS011;36982;51.474;7.228;2023-05-10T03:57:03;13.20;;;7.47;;
50968;SDS011;36982;51.474;7.228;2023-05-10T03:59:29;12.47;;;7.67;;
50968;SDS011;36982;51.474;7.228;2023-05-10T04:01:55;12.17;;;7.67;;
50968;SDS011;36982;51.474;7.228;2023-05-10T04:04:21;14.13;;;9.10;;
50968;SDS011;36982;51.474;7.228;2023-05-10T04:06:48;17.07;;;9.20;;
50968;SDS011;36982;51.474;7.228;2023-05-10T04:09:14;17.17;;;10.10;;
50968;SDS011;36982;51.474;7.228;2023-05-10T04:11:41;21.27;;;11.37;;
50968;SDS011;36982;51.474;7.228;2023-05-10T04:14:06;18.97;;;11.47;;
50968;SDS011;36982;51.474;7.228;2023-05-10T04:16:32;21.07;;;11.97;;
50968;SDS011;36982;51.474;7.228;2023-05-10T04:18:58;19.43;;;12.50;;
50968;SDS011;36982;51.474;7.228;2023-05-10T04:21:24;27.47;;;14.00;;
50968;SDS011;36982;51.474;7.228;2023-05-10T04:23:50;22.73;;;13.47;;
50968;SDS011;36982;51.474;7.228;2023-05-10T04:26:16;22.20;;;13.70;;
50968;SDS011;36982;51.474;7.228;2023-05-10T04:28:41;23.80;;;13.37;;
50968;SDS011;36982;51.474;7.228;2023-05-10T04:31:08;20.40;;;13.37;;
50968;SDS011;36982;51.474;7.228;2023-05-10T04:33:34;22.27;;;14.57;;
50968;SDS011;36982;51.474;7.228;2023-05-10T04:36:00;23.60;;;14.33;;
50968;SDS011;36982;51.474;7.228;2023-05-10T04:38:27;23.43;;;14.90;;
50968;SDS011;36982;51.474;7.228;2023-05-10T04:40:53;27.57;;;15.73;;
50968;SDS011;36982;51.474;7.228;2023-05-10T04:43:19;24.53;;;14.37;;
50968;SDS011;36982;51.474;7.228;2023-05-10T04:45:45;27.87;;;16.00;;
50968;SDS011;36982;51.474;7.228;2023-05-10T04:48:11;31.57;;;16.73;;
50968;SDS011;36982;51.474;7.228;2023-05-10T04:50:37;30.73;;;17.27;;
50968;SDS011;36982;51.474;7.228;2023-05-10T04:53:04;30.57;;;18.40;;
50968;SDS011;36982;51.474;7.228;2023-05-10T04:55:29;29.60;;;17.27;;
50968;SDS011;36982;51.474;7.228;2023-05-10T04:57:55;33.30;;;17.83;;
50968;SDS011;36982;51.474;7.228;2023-05-10T05:00:22;32.17;;;18.90;;
50968;SDS011;36982;51.474;7.228;2023-05-10T05:02:48;31.40;;;18.73;;
50968;SDS011;36982;51.474;7.228;2023-05-10T05:05:14;31.67;;;18.73;;
50968;SDS011;36982;51.474;7.228;2023-05-10T05:07:39;31.17;;;18.57;;
50968;SDS011;36982;51.474;7.228;2023-05-10T05:10:06;34.03;;;18.30;;
50968;SDS011;36982;51.474;7.228;2023-05-10T05:12:32;36.87;;;18.83;;
50968;SDS011;36982;51.474;7.228;2023-05-10T05:14:58;34.80;;;19.43;;
50968;SDS011;36982;51.474;7.228;2023-05-10T05:17:23;32.97;;;19.57;;
50968;SDS011;36982;51.474;7.228;2023-05-10T05:19:49;32.00;;;18.17;;
50968;SDS011;36982;51.474;7.228;2023-05-10T05:22:15;32.40;;;18.47;;
50968;SDS011;36982;51.474;7.228;2023-05-10T05:24:40;35.10;;;20.70;;
50968;SDS011;36982;51.474;7.228;2023-05-10T05:27:06;36.43;;;21.03;;
50968;SDS011;36982;51.474;7.228;2023-05-10T05:29:32;35.40;;;20.00;;
50968;SDS011;36982;51.474;7.228;2023-05-10T05:31:57;36.67;;;21.67;;
50968;SDS011;36982;51.474;7.228;2023-05-10T05:34:23;40.27;;;22.07;;
50968;SDS011;36982;51.474;7.228;2023-05-10T05:36:49;35.83;;;20.37;;
50968;SDS011;36982;51.474;7.228;2023-05-10T05:39:15;37.33;;;21.37;;
50968;SDS011;36982;51.474;7.228;2023-05-10T05:41:41;37.13;;;20.40;;
50968;SDS011;36982;51.474;7.228;2023-05-10T05:44:07;39.40;;;21.73;;
50968;SDS011;36982;51.474;7.228;2023-05-10T05:46:33;39.90;;;21.57;;
50968;SDS011;36982;51.474;7.228;2023-05-10T05:48:58;38.50;;;22.77;;
50968;SDS011;36982;51.474;7.228;2023-05-10T05:51:24;40.83;;;21.97;;
50968;SDS011;36982;51.474;7.228;2023-05-10T05:53:50;41.10;;;22.63;;
50968;SDS011;36982;51.474;7.228;2023-05-10T05:56:16;34.03;;;22.23;;
50968;SDS011;36982;51.474;7.228;2023-05-10T05:58:48;37.90;;;21.23;;
50968;SDS011;36982;51.474;7.228;2023-05-10T06:01:17;37.67;;;22.63;;
50968;SDS011;36982;51.474;7.228;2023-05-10T06:03:43;36.30;;;21.80;;
50968;SDS011;36982;51.474;7.228;2023-05-10T06:06:08;38.10;;;23.87;;
50968;SDS011;36982;51.474;7.228;2023-05-10T06:08:34;36.07;;;22.30;;
50968;SDS011;36982;51.474;7.228;2023-05-10T06:11:00;37.20;;;21.93;;
50968;SDS011;36982;51.474;7.228;2023-05-10T06:13:26;35.07;;;21.80;;
50968;SDS011;36982;51.474;7.228;2023-05-10T06:15:57;37.60;;;22.37;;
50968;SDS011;36982;51.474;7.228;2023-05-10T06:18:23;36.73;;;22.00;;
50968;SDS011;36982;51.474;7.228;2023-05-10T06:20:49;37.07;;;22.10;;
50968;SDS011;36982;51.474;7.228;2023-05-10T06:23:15;38.50;;;23.23;;
50968;SDS011;36982;51.474;7.228;2023-05-10T06:25:41;37.83;;;23.00;;
50968;SDS011;36982;51.474;7.228;2023-05-10T06:28:06;36.17;;;22.53;;
50968;SDS011;36982;51.474;7.228;2023-05-10T06:30:32;37.73;;;22.73;;
50968;SDS011;36982;51.474;7.228;2023-05-10T06:32:58;38.87;;;23.37;;
50968;SDS011;36982;51.474;7.228;2023-05-10T06:35:24;38.47;;;22.67;;
50968;SDS011;36982;51.474;7.228;2023-05-10T06:37:50;33.30;;;20.53;;
50968;SDS011;36982;51.474;7.228;2023-05-10T06:40:16;36.23;;;21.60;;
50968;SDS011;36982;51.474;7.228;2023-05-10T06:42:42;39.07;;;21.97;;
50968;SDS011;36982;51.474;7.228;2023-05-10T06:45:09;29.83;;;19.93;;
50968;SDS011;36982;51.474;7.228;2023-05-10T06:47:35;29.40;;;17.90;;
50968;SDS011;36982;51.474;7.228;2023-05-10T06:50:01;29.60;;;19.87;;
50968;SDS011;36982;51.474;7.228;2023-05-10T06:52:27;29.97;;;19.37;;
50968;SDS011;36982;51.474;7.228;2023-05-10T06:54:53;31.57;;;19.83;;
50968;SDS011;36982;51.474;7.228;2023-05-10T06:57:19;30.93;;;19.13;;
50968;SDS011;36982;51.474;7.228;2023-05-10T06:59:45;32.93;;;20.03;;
50968;SDS011;36982;51.474;7.228;2023-05-10T07:02:11;28.60;;;18.87;;
50968;SDS011;36982;51.474;7.228;2023-05-10T07:04:37;28.00;;;19.87;;
50968;SDS011;36982;51.474;7.228;2023-05-10T07:07:02;31.43;;;19.77;;
50968;SDS011;36982;51.474;7.228;2023-05-10T07:09:28;29.37;;;20.17;;
50968;SDS011;36982;51.474;7.228;2023-05-10T07:11:54;33.17;;;21.57;;
50968;SDS011;36982;51.474;7.228;2023-05-10T07:14:22;33.00;;;21.10;;
50968;SDS011;36982;51.474;7.228;2023-05-10T07:16:48;32.07;;;20.80;;
50968;SDS011;36982;51.474;7.228;2023-05-10T07:19:14;32.63;;;21.43;;
50968;SDS011;36982;51.474;7.228;2023-05-10T07:21:40;31.60;;;20.20;;
50968;SDS011;36982;51.474;7.228;2023-05-10T07:24:08;34.27;;;19.20;;
50968;SDS011;36982;51.474;7.228;2023-05-10T07:26:34;31.93;;;19.13;;
50968;SDS011;36982;51.474;7.228;2023-05-10T07:28:59;34.40;;;19.77;;
50968;SDS011;36982;51.474;7.228;2023-05-10T07:31:26;32.97;;;19.57;;
50968;SDS011;36982;51.474;7.228;2023-05-10T07:33:51;31.87;;;19.40;;
50968;SDS011;36982;51.474;7.228;2023-05-10T07:36:17;31.40;;;18.50;;
50968;SDS011;36982;51.474;7.228;2023-05-10T07:38:43;30.87;;;18.70;;
50968;SDS011;36982;51.474;7.228;2023-05-10T07:41:08;33.97;;;18.83;;
50968;SDS011;36982;51.474;7.228;2023-05-10T07:43:34;32.00;;;18.93;;
50968;SDS011;36982;51.474;7.228;2023-05-10T07:46:00;32.60;;;19.07;;
50968;SDS011;36982;51.474;7.228;2023-05-10T07:48:26;32.20;;;20.00;;
50968;SDS011;36982;51.474;7.228;2023-05-10T07:50:51;28.90;;;18.13;;
50968;SDS011;36982;51.474;7.228;2023-05-10T07:53:17;31.63;;;17.40;;
50968;SDS011;36982;51.474;7.228;2023-05-10T07:55:43;30.10;;;17.57;;
50968;SDS011;36982;51.474;7.228;2023-05-10T07:58:10;30.30;;;18.33;;
50968;SDS011;36982;51.474;7.228;2023-05-10T08:00:35;31.87;;;18.23;;
50968;SDS011;36982;51.474;7.228;2023-05-10T08:03:04;31.80;;;18.60;;
50968;SDS011;36982;51.474;7.228;2023-05-10T08:05:29;32.77;;;18.00;;
50968;SDS011;36982;51.474;7.228;2023-05-10T08:07:56;30.63;;;18.07;;
50968;SDS011;36982;51.474;7.228;2023-05-10T08:10:21;33.50;;;19.40;;
50968;SDS011;36982;51.474;7.228;2023-05-10T08:12:47;33.87;;;19.10;;
50968;SDS011;36982;51.474;7.228;2023-05-10T08:15:12;33.90;;;20.97;;
50968;SDS011;36982;51.474;7.228;2023-05-10T08:17:38;35.97;;;21.40;;
50968;SDS011;36982;51.474;7.228;2023-05-10T08:20:04;31.37;;;20.03;;
50968;SDS011;36982;51.474;7.228;2023-05-10T08:22:30;34.30;;;20.43;;
50968;SDS011;36982;51.474;7.228;2023-05-10T08:24:58;34.53;;;19.60;;
50968;SDS011;36982;51.474;7.228;2023-05-10T08:27:23;32.23;;;19.70;;
50968;SDS011;36982;51.474;7.228;2023-05-10T08:29:49;33.70;;;19.57;;
50968;SDS011;36982;51.474;7.228;2023-05-10T08:32:15;37.07;;;18.87;;
50968;SDS011;36982;51.474;7.228;2023-05-10T08:34:40;34.73;;;19.83;;
50968;SDS011;36982;51.474;7.228;2023-05-10T08:37:06;35.80;;;20.77;;
50968;SDS011;36982;51.474;7.228;2023-05-10T08:39:35;31.00;;;19.70;;
50968;SDS011;36982;51.474;7.228;2023-05-10T08:42:01;32.13;;;19.77;;
50968;SDS011;36982;51.474;7.228;2023-05-10T08:44:30;33.53;;;19.87;;
50968;SDS011;36982;51.474;7.228;2023-05-10T08:46:57;32.40;;;19.43;;
50968;SDS011;36982;51.474;7.228;2023-05-10T08:49:27;36.00;;;21.07;;
50968;SDS011;36982;51.474;7.228;2023-05-10T08:51:56;29.27;;;17.63;;
50968;SDS011;36982;51.474;7.228;2023-05-10T08:54:24;26.23;;;16.90;;
50968;SDS011;36982;51.474;7.228;2023-05-10T08:56:50;27.45;;;17.25;;
50968;SDS011;36982;51.474;7.228;2023-05-10T08:59:16;29.90;;;16.63;;
50968;SDS011;36982;51.474;7.228;2023-05-10T09:01:43;27.37;;;15.83;;
50968;SDS011;36982;51.474;7.228;2023-05-10T09:04:12;24.17;;;14.87;;
50968;SDS011;36982;51.474;7.228;2023-05-10T09:06:38;20.03;;;13.23;;
50968;SDS011;36982;51.474;7.228;2023-05-10T09:09:04;16.83;;;11.30;;
50968;SDS011;36982;51.474;7.228;2023-05-10T09:11:30;16.90;;;11.77;;
50968;SDS011;36982;51.474;7.228;2023-05-10T09:13:56;16.67;;;10.83;;
50968;SDS011;36982;51.474;7.228;2023-05-10T09:16:22;19.30;;;12.17;;
50968;SDS011;36982;51.474;7.228;2023-05-10T09:18:48;20.43;;;12.23;;
50968;SDS011;36982;51.474;7.228;2023-05-10T09:21:14;21.07;;;13.20;;
50968;SDS011;36982;51.474;7.228;2023-05-10T09:23:44;20.58;;;13.05;;
50968;SDS011;36982;51.474;7.228;2023-05-10T09:26:11;19.87;;;13.30;;
50968;SDS011;36982;51.474;7.228;2023-05-10T09:28:51;16.83;;;11.53;;
50968;SDS011;36982;51.474;7.228;2023-05-10T09:31:21;18.33;;;11.80;;
50968;SDS011;36982;51.474;7.228;2023-05-10T09:33:47;20.67;;;12.37;;
50968;SDS011;36982;51.474;7.228;2023-05-10T09:36:13;18.23;;;11.68;;
50968;SDS011;36982;51.474;7.228;2023-05-10T09:38:50;15.73;;;10.07;;
50968;SDS011;36982;51.474;7.228;2023-05-10T09:41:25;13.68;;;9.90;;
50968;SDS011;36982;51.474;7.228;2023-05-10T09:43:55;18.52;;;12.80;;
50968;SDS011;36982;51.474;7.228;2023-05-10T09:46:21;12.97;;;8.47;;
50968;SDS011;36982;51.474;7.228;2023-05-10T09:48:50;14.40;;;9.60;;
50968;SDS011;36982;51.474;7.228;2023-05-10T09:51:20;15.00;;;9.57;;
50968;SDS011;36982;51.474;7.228;2023-05-10T09:53:47;17.30;;;9.53;;
50968;SDS011;36982;51.474;7.228;2023-05-10T09:56:32;16.67;;;10.27;;
50968;SDS011;36982;51.474;7.228;2023-05-10T09:59:02;17.97;;;9.67;;
50968;SDS011;36982;51.474;7.228;2023-05-10T10:01:29;16.00;;;10.33;;
50968;SDS011;36982;51.474;7.228;2023-05-10T10:03:56;16.57;;;10.13;;
50968;SDS011;36982;51.474;7.228;2023-05-10T10:06:24;16.20;;;10.43;;
50968;SDS011;36982;51.474;7.228;2023-05-10T10:08:51;16.40;;;9.67;;
50968;SDS011;36982;51.474;7.228;2023-05-10T10:11:19;16.50;;;10.30;;
50968;SDS011;36982;51.474;7.228;2023-05-10T10:13:45;17.60;;;10.82;;
50968;SDS011;36982;51.474;7.228;2023-05-10T10:16:11;17.20;;;10.47;;
50968;SDS011;36982;51.474;7.228;2023-05-10T10:18:36;18.98;;;11.55;;
50968;SDS011;36982;51.474;7.228;2023-05-10T10:21:06;21.20;;;12.57;;
50968;SDS011;36982;51.474;7.228;2023-05-10T10:23:34;24.50;;;14.50;;
50968;SDS011;36982;51.474;7.228;2023-05-10T10:26:00;22.43;;;13.43;;
50968;SDS011;36982;51.474;7.228;2023-05-10T10:33:55;20.30;;;12.40;;
50968;SDS011;36982;51.474;7.228;2023-05-10T10:36:26;19.33;;;12.40;;
50968;SDS011;36982;51.474;7.228;2023-05-10T10:38:56;17.77;;;11.80;;
50968;SDS011;36982;51.474;7.228;2023-05-10T10:49:27;15.57;;;10.63;;
50968;SDS011;36982;51.474;7.228;2023-05-10T10:54:50;16.48;;;10.63;;
50968;SDS011;36982;51.474;7.228;2023-05-10T10:57:17;16.50;;;10.80;;
50968;SDS011;36982;51.474;7.228;2023-05-10T10:59:46;16.83;;;10.15;;
50968;SDS011;36982;51.474;7.228;2023-05-10T11:05:26;15.83;;;12.10;;
50968;SDS011;36982;51.474;7.228;2023-05-10T11:10:39;16.37;;;13.40;;
50968;SDS011;36982;51.474;7.228;2023-05-10T11:13:14;19.83;;;14.33;;
50968;SDS011;36982;51.474;7.228;2023-05-10T11:15:40;18.83;;;12.83;;
50968;SDS011;36982;51.474;7.228;2023-05-10T11:18:26;22.20;;;13.57;;
50968;SDS011;36982;51.474;7.228;2023-05-10T11:20:55;20.70;;;12.80;;
50968;SDS011;36982;51.474;7.228;2023-05-10T11:23:47;17.67;;;12.50;;
50968;SDS011;36982;51.474;7.228;2023-05-10T11:26:15;19.58;;;12.93;;
50968;SDS011;36982;51.474;7.228;2023-05-10T11:28:41;20.77;;;12.55;;
50968;SDS011;36982;51.474;7.228;2023-05-10T11:31:12;21.53;;;12.40;;
50968;SDS011;36982;51.474;7.228;2023-05-10T11:33:43;18.08;;;11.43;;
50968;SDS011;36982;51.474;7.228;2023-05-10T11:38:52;18.23;;;11.73;;
50968;SDS011;36982;51.474;7.228;2023-05-10T11:41:19;16.73;;;10.70;;
50968;SDS011;36982;51.474;7.228;2023-05-10T11:43:47;14.80;;;11.10;;
50968;SDS011;36982;51.474;7.228;2023-05-10T11:46:15;17.08;;;10.38;;
50968;SDS011;36982;51.474;7.228;2023-05-10T11:48:44;14.13;;;8.88;;
50968;SDS011;36982;51.474;7.228;2023-05-10T11:51:10;17.42;;;9.02;;
50968;SDS011;36982;51.474;7.228;2023-05-10T11:53:36;14.57;;;9.27;;
50968;SDS011;36982;51.474;7.228;2023-05-10T11:56:06;14.65;;;8.95;;
50968;SDS011;36982;51.474;7.228;2023-05-10T11:58:34;13.68;;;8.40;;
50968;SDS011;36982;51.474;7.228;2023-05-10T12:01:00;12.82;;;8.65;;
50968;SDS011;36982;51.474;7.228;2023-05-10T12:03:27;13.32;;;8.30;;
50968;SDS011;36982;51.474;7.228;2023-05-10T12:05:53;13.60;;;7.95;;
50968;SDS011;36982;51.474;7.228;2023-05-10T12:08:21;12.85;;;9.25;;
50968;SDS011;36982;51.474;7.228;2023-05-10T12:10:50;12.95;;;8.48;;
50968;SDS011;36982;51.474;7.228;2023-05-10T12:13:16;14.32;;;9.18;;
50968;SDS011;36982;51.474;7.228;2023-05-10T12:15:43;14.23;;;9.82;;
50968;SDS011;36982;51.474;7.228;2023-05-10T12:18:10;11.43;;;8.63;;
50968;SDS011;36982;51.474;7.228;2023-05-10T12:20:36;12.53;;;8.43;;
50968;SDS011;36982;51.474;7.228;2023-05-10T12:23:02;13.20;;;8.32;;
50968;SDS011;36982;51.474;7.228;2023-05-10T12:25:35;10.03;;;8.43;;
50968;SDS011;36982;51.474;7.228;2023-05-10T12:28:03;10.57;;;8.43;;
50968;SDS011;36982;51.474;7.228;2023-05-10T12:30:31;14.17;;;9.50;;
50968;SDS011;36982;51.474;7.228;2023-05-10T12:33:01;15.87;;;9.90;;
50968;SDS011;36982;51.474;7.228;2023-05-10T12:35:33;11.50;;;9.75;;
50968;SDS011;36982;51.474;7.228;2023-05-10T12:41:04;17.33;;;11.02;;
50968;SDS011;36982;51.474;7.228;2023-05-10T12:43:32;13.75;;;9.55;;
50968;SDS011;36982;51.474;7.228;2023-05-10T12:45:58;13.15;;;9.93;;
50968;SDS011;36982;51.474;7.228;2023-05-10T12:48:29;11.73;;;9.90;;
50968;SDS011;36982;51.474;7.228;2023-05-10T12:50:56;13.40;;;10.13;;
50968;SDS011;36982;51.474;7.228;2023-05-10T12:53:22;15.15;;;10.90;;
50968;SDS011;36982;51.474;7.228;2023-05-10T12:55:47;13.48;;;9.60;;
50968;SDS011;36982;51.474;7.228;2023-05-10T12:58:13;11.18;;;8.95;;
50968;SDS011;36982;51.474;7.228;2023-05-10T13:00:39;14.95;;;9.45;;
50968;SDS011;36982;51.474;7.228;2023-05-10T13:03:05;13.27;;;9.23;;
50968;SDS011;36982;51.474;7.228;2023-05-10T13:05:33;11.40;;;9.02;;
50968;SDS011;36982;51.474;7.228;2023-05-10T13:07:59;12.25;;;7.90;;
50968;SDS011;36982;51.474;7.228;2023-05-10T13:10:25;13.40;;;9.07;;
50968;SDS011;36982;51.474;7.228;2023-05-10T13:12:51;10.73;;;8.52;;
50968;SDS011;36982;51.474;7.228;2023-05-10T13:15:16;12.37;;;9.50;;
50968;SDS011;36982;51.474;7.228;2023-05-10T13:17:42;12.93;;;10.18;;
50968;SDS011;36982;51.474;7.228;2023-05-10T13:20:08;14.18;;;10.05;;
50968;SDS011;36982;51.474;7.228;2023-05-10T13:22:35;11.43;;;9.35;;
50968;SDS011;36982;51.474;7.228;2023-05-10T13:25:01;10.07;;;7.37;;
50968;SDS011;36982;51.474;7.228;2023-05-10T13:27:26;7.97;;;7.18;;
50968;SDS011;36982;51.474;7.228;2023-05-10T13:29:52;10.45;;;8.02;;
50968;SDS011;36982;51.474;7.228;2023-05-10T13:32:18;7.80;;;6.50;;
50968;SDS011;36982;51.474;7.228;2023-05-10T13:34:44;6.70;;;5.62;;
50968;SDS011;36982;51.474;7.228;2023-05-10T13:37:10;7.97;;;5.82;;
50968;SDS011;36982;51.474;7.228;2023-05-10T13:39:35;8.05;;;6.50;;
50968;SDS011;36982;51.474;7.228;2023-05-10T13:42:02;7.60;;;5.97;;
50968;SDS011;36982;51.474;7.228;2023-05-10T13:44:28;8.50;;;5.62;;
50968;SDS011;36982;51.474;7.228;2023-05-10T13:46:55;5.70;;;5.00;;
50968;SDS011;36982;51.474;7.228;2023-05-10T13:49:21;7.60;;;5.12;;
50968;SDS011;36982;51.474;7.228;2023-05-10T13:51:47;5.82;;;5.07;;
50968;SDS011;36982;51.474;7.228;2023-05-10T13:54:13;6.78;;;4.97;;
50968;SDS011;36982;51.474;7.228;2023-05-10T13:56:39;8.05;;;5.22;;
50968;SDS011;36982;51.474;7.228;2023-05-10T13:59:06;5.25;;;4.50;;
50968;SDS011;36982;51.474;7.228;2023-05-10T14:01:32;5.97;;;4.55;;
50968;SDS011;36982;51.474;7.228;2023-05-10T14:03:59;7.60;;;5.87;;
50968;SDS011;36982;51.474;7.228;2023-05-10T14:06:25;5.62;;;3.90;;
50968;SDS011;36982;51.474;7.228;2023-05-10T14:08:52;7.05;;;4.72;;
50968;SDS011;36982;51.474;7.228;2023-05-10T14:11:18;7.00;;;4.65;;
50968;SDS011;36982;51.474;7.228;2023-05-10T14:13:44;4.68;;;3.97;;
50968;SDS011;36982;51.474;7.228;2023-05-10T14:16:10;6.20;;;4.80;;
50968;SDS011;36982;51.474;7.228;2023-05-10T14:18:36;5.35;;;4.07;;
50968;SDS011;36982;51.474;7.228;2023-05-10T14:21:02;7.53;;;4.65;;
50968;SDS011;36982;51.474;7.228;2023-05-10T14:23:28;5.82;;;4.57;;
50968;SDS011;36982;51.474;7.228;2023-05-10T14:25:55;4.85;;;3.08;;
50968;SDS011;36982;51.474;7.228;2023-05-10T14:28:20;4.90;;;3.65;;
50968;SDS011;36982;51.474;7.228;2023-05-10T14:30:47;4.97;;;4.05;;
50968;SDS011;36982;51.474;7.228;2023-05-10T14:33:13;5.60;;;4.07;;
50968;SDS011;36982;51.474;7.228;2023-05-10T14:35:39;6.47;;;3.60;;
50968;SDS011;36982;51.474;7.228;2023-05-10T14:38:05;9.90;;;6.30;;
50968;SDS011;36982;51.474;7.228;2023-05-10T14:40:31;6.95;;;4.72;;
50968;SDS011;36982;51.474;7.228;2023-05-10T14:42:57;4.97;;;4.47;;
50968;SDS011;36982;51.474;7.228;2023-05-10T14:45:22;8.77;;;4.47;;
50968;SDS011;36982;51.474;7.228;2023-05-10T14:47:49;7.10;;;3.95;;
50968;SDS011;36982;51.474;7.228;2023-05-10T14:50:15;6.28;;;3.83;;
50968;SDS011;36982;51.474;7.228;2023-05-10T14:52:42;6.87;;;4.22;;
50968;SDS011;36982;51.474;7.228;2023-05-10T14:55:09;4.32;;;3.20;;
50968;SDS011;36982;51.474;7.228;2023-05-10T14:57:35;6.20;;;3.55;;
50968;SDS011;36982;51.474;7.228;2023-05-10T15:00:01;3.50;;;3.15;;
50968;SDS011;36982;51.474;7.228;2023-05-10T15:02:28;4.07;;;3.42;;
50968;SDS011;36982;51.474;7.228;2023-05-10T15:04:54;4.65;;;3.50;;
50968;SDS011;36982;51.474;7.228;2023-05-10T15:07:27;4.43;;;3.22;;
50968;SDS011;36982;51.474;7.228;2023-05-10T15:09:52;4.68;;;3.40;;
50968;SDS011;36982;51.474;7.228;2023-05-10T15:12:19;5.28;;;3.33;;
50968;SDS011;36982;51.474;7.228;2023-05-10T15:14:45;4.37;;;3.95;;
50968;SDS011;36982;51.474;7.228;2023-05-10T15:17:12;6.50;;;4.40;;